Time;durP1;ratioP1;P1;durP2;ratioP2;P2;SDS_P1;SDS_P2;PMS_P1;PMS_P2;Temp;Humidity;BMP_temperature;BMP_pressure;BME280_temperature;BME280_humidity;BME280_pressure;Samples;Min_cycle;Max_cycle;Signal;HPM_P1;HPM_P2
2021/09/20 00:00:39;;;;;;;14.83;9.87;;;16.40;99.90;;;;;;5072369;28;20189;-79
2021/09/20 00:03:05;;;;;;;14.33;9.90;;;16.30;99.90;;;;;;5065352;28;20186;-78
2021/09/20 00:05:31;;;;;;;14.97;9.67;;;16.20;99.90;;;;;;5042273;28;20591;-79
2021/09/20 00:07:57;;;;;;;16.47;9.93;;;16.20;99.90;;;;;;5080235;28;20220;-78
2021/09/20 00:10:23;;;;;;;15.50;9.87;;;16.20;99.90;;;;;;5071110;28;20937;-78
2021/09/20 00:12:48;;;;;;;13.80;9.67;;;16.30;99.90;;;;;;5094467;28;20260;-78
2021/09/20 00:15:14;;;;;;;14.63;9.43;;;16.40;99.90;;;;;;5078465;28;20222;-79
2021/09/20 00:17:40;;;;;;;16.10;9.30;;;16.50;99.90;;;;;;5094040;28;20222;-79
2021/09/20 00:20:08;;;;;;;15.53;9.73;;;16.60;99.90;;;;;;5075829;28;20269;-79
2021/09/20 00:22:35;;;;;;;15.53;9.73;;;16.60;99.90;;;;;;5090235;28;20651;-78
2021/09/20 00:25:00;;;;;;;13.67;9.03;;;16.60;99.90;;;;;;5094136;28;20198;-79
2021/09/20 00:27:26;;;;;;;13.27;8.57;;;16.60;99.90;;;;;;5096852;28;20178;-79
2021/09/20 00:29:52;;;;;;;15.33;9.20;;;16.60;99.90;;;;;;5061607;28;20196;-79
2021/09/20 00:32:19;;;;;;;13.00;8.33;;;16.50;99.90;;;;;;5092986;28;20557;-79
2021/09/20 00:34:45;;;;;;;14.40;8.50;;;16.50;99.90;;;;;;5092575;28;20191;-79
2021/09/20 00:37:11;;;;;;;14.00;8.50;;;16.50;99.90;;;;;;5088263;28;20178;-79
2021/09/20 00:39:37;;;;;;;15.30;7.83;;;16.40;99.90;;;;;;5092740;28;20261;-79
2021/09/20 00:42:04;;;;;;;13.40;8.27;;;16.50;99.90;;;;;;5091006;28;20189;-79
2021/09/20 00:44:30;;;;;;;12.90;8.53;;;16.60;99.90;;;;;;5091990;28;20180;-78
2021/09/20 00:46:56;;;;;;;12.03;8.30;;;16.60;99.90;;;;;;5074407;28;20695;-79
2021/09/20 00:49:21;;;;;;;15.33;9.17;;;16.60;99.90;;;;;;5092011;28;20227;-79
2021/09/20 00:51:47;;;;;;;12.97;7.90;;;16.60;99.90;;;;;;5075963;28;20183;-79
2021/09/20 00:54:13;;;;;;;13.20;8.03;;;16.70;99.90;;;;;;5094090;28;20185;-79
2021/09/20 00:56:39;;;;;;;13.43;7.70;;;16.70;99.90;;;;;;5069195;28;20202;-79
2021/09/20 00:59:06;;;;;;;13.53;8.67;;;16.70;99.90;;;;;;5068473;28;20186;-79
2021/09/20 01:01:33;;;;;;;11.40;6.90;;;16.80;99.90;;;;;;5094668;28;20178;-79
2021/09/20 01:03:59;;;;;;;12.93;7.33;;;16.90;99.90;;;;;;5077558;28;20265;-79
2021/09/20 01:06:25;;;;;;;14.97;8.07;;;16.90;99.90;;;;;;5086750;28;20198;-79
2021/09/20 01:08:50;;;;;;;12.50;7.40;;;16.90;99.90;;;;;;5062129;28;20245;-79
2021/09/20 01:11:16;;;;;;;13.70;7.77;;;16.90;99.90;;;;;;5053677;28;20301;-79
2021/09/20 01:13:43;;;;;;;11.40;7.10;;;16.80;99.90;;;;;;5071361;28;20187;-79
2021/09/20 01:16:08;;;;;;;13.00;7.40;;;16.80;99.90;;;;;;5076195;28;20214;-78
2021/09/20 01:18:34;;;;;;;12.13;7.10;;;16.80;99.90;;;;;;5070647;28;20706;-80
2021/09/20 01:21:01;;;;;;;13.07;7.33;;;16.80;99.90;;;;;;5063406;28;20668;-79
2021/09/20 01:23:26;;;;;;;13.30;7.40;;;16.80;99.90;;;;;;5071499;28;20177;-79
2021/09/20 01:25:52;;;;;;;11.47;6.63;;;16.90;99.90;;;;;;5073098;28;20290;-79
2021/09/20 01:28:18;;;;;;;13.53;7.30;;;16.90;99.90;;;;;;5057979;28;20645;-78
2021/09/20 01:30:43;;;;;;;11.07;6.87;;;16.90;99.90;;;;;;5056048;28;20192;-78
2021/09/20 01:33:10;;;;;;;12.00;7.50;;;17.00;99.90;;;;;;5055190;28;20179;-78
2021/09/20 01:35:36;;;;;;;12.70;7.70;;;17.00;99.90;;;;;;5055226;28;20233;-78
2021/09/20 01:38:02;;;;;;;11.73;7.27;;;17.00;99.90;;;;;;5046705;28;20193;-77
2021/09/20 01:40:28;;;;;;;15.80;7.53;;;16.90;99.90;;;;;;5052051;28;20176;-77
2021/09/20 01:42:54;;;;;;;14.77;7.80;;;16.90;99.90;;;;;;5052867;28;20659;-78
2021/09/20 01:45:20;;;;;;;12.47;7.13;;;16.90;99.90;;;;;;5036383;28;20193;-77
2021/09/20 01:47:46;;;;;;;12.93;7.37;;;16.80;99.90;;;;;;5055348;28;20182;-77
2021/09/20 01:50:13;;;;;;;14.53;8.10;;;16.80;99.90;;;;;;5043482;28;20187;-77
2021/09/20 01:52:40;;;;;;;13.93;7.63;;;16.90;99.90;;;;;;5075842;28;20281;-77
2021/09/20 01:55:10;;;;;;;17.80;7.70;;;16.80;99.90;;;;;;5069130;28;20228;-77
2021/09/20 01:57:36;;;;;;;13.53;8.20;;;16.80;99.90;;;;;;5056911;28;20639;-77
2021/09/20 02:00:04;;;;;;;12.10;7.73;;;16.80;99.90;;;;;;5068355;28;20187;-77
2021/09/20 02:02:37;;;;;;;12.73;8.00;;;16.80;99.90;;;;;;5060313;28;20186;-78
2021/09/20 02:05:03;;;;;;;12.23;7.50;;;16.80;99.90;;;;;;5070585;28;20196;-78
2021/09/20 02:07:29;;;;;;;13.47;8.23;;;16.80;99.90;;;;;;5076068;28;20569;-77
2021/09/20 02:09:55;;;;;;;12.70;8.20;;;16.70;99.90;;;;;;5088367;28;20183;-77
2021/09/20 02:12:21;;;;;;;12.60;7.47;;;16.70;99.90;;;;;;5076634;28;20296;-78
2021/09/20 02:14:46;;;;;;;14.90;7.50;;;16.70;99.90;;;;;;5062980;28;20719;-78
2021/09/20 02:17:12;;;;;;;11.77;7.40;;;16.70;99.90;;;;;;5096103;28;20178;-77
2021/09/20 02:19:39;;;;;;;13.87;8.53;;;16.60;99.90;;;;;;5071900;28;20638;-77
2021/09/20 02:22:05;;;;;;;16.20;7.70;;;16.60;99.90;;;;;;5088177;28;20194;-77
2021/09/20 02:24:31;;;;;;;12.33;7.20;;;16.50;99.90;;;;;;5091712;28;20579;-77
2021/09/20 02:26:58;;;;;;;13.23;7.10;;;16.50;99.90;;;;;;5059983;28;20198;-77
2021/09/20 02:29:24;;;;;;;11.27;6.80;;;16.50;99.90;;;;;;5076038;28;20185;-77
2021/09/20 02:31:50;;;;;;;14.50;7.53;;;16.50;99.90;;;;;;5093210;28;20524;-77
2021/09/20 02:34:16;;;;;;;11.30;7.33;;;16.50;99.90;;;;;;5090417;28;20257;-77
2021/09/20 02:36:42;;;;;;;13.43;8.00;;;16.60;99.90;;;;;;5096556;28;20635;-77
2021/09/20 02:39:07;;;;;;;15.07;8.40;;;16.70;99.90;;;;;;5092247;28;20269;-77
2021/09/20 02:41:33;;;;;;;15.53;8.10;;;16.70;99.90;;;;;;5092443;28;20182;-77
2021/09/20 02:43:59;;;;;;;12.07;7.80;;;16.60;99.90;;;;;;5096622;28;20247;-77
2021/09/20 02:46:25;;;;;;;13.63;7.87;;;16.60;99.90;;;;;;5086896;28;20185;-77
2021/09/20 02:48:50;;;;;;;13.73;7.87;;;16.50;99.90;;;;;;5078867;28;20203;-76
2021/09/20 02:51:16;;;;;;;14.43;7.40;;;16.50;99.90;;;;;;5078328;28;20781;-77
2021/09/20 02:53:42;;;;;;;13.27;8.00;;;16.40;99.90;;;;;;5096895;28;20531;-76
2021/09/20 02:56:07;;;;;;;13.40;7.97;;;16.40;99.90;;;;;;5094883;28;20206;-76
2021/09/20 02:58:35;;;;;;;13.60;6.93;;;16.40;99.90;;;;;;5097446;28;20274;-77
2021/09/20 03:01:00;;;;;;;11.97;7.30;;;16.50;99.90;;;;;;5079935;28;20709;-78
2021/09/20 03:03:26;;;;;;;11.50;7.40;;;16.50;99.90;;;;;;5093837;28;20225;-78
2021/09/20 03:05:52;;;;;;;14.77;7.80;;;16.40;99.90;;;;;;5095162;28;20223;-77
2021/09/20 03:08:17;;;;;;;14.00;7.50;;;16.40;99.90;;;;;;5090636;28;20248;-77
2021/09/20 03:10:43;;;;;;;12.97;7.77;;;16.40;99.90;;;;;;5089942;28;20178;-78
2021/09/20 03:13:09;;;;;;;14.73;8.07;;;16.40;99.90;;;;;;5079019;28;20907;-77
2021/09/20 03:15:35;;;;;;;11.90;7.80;;;16.50;99.90;;;;;;5074127;28;20216;-77
2021/09/20 03:18:01;;;;;;;12.90;8.43;;;16.60;99.90;;;;;;5077853;28;20269;-78
2021/09/20 03:20:27;;;;;;;13.30;7.87;;;16.70;99.90;;;;;;5072143;28;20178;-76
2021/09/20 03:22:53;;;;;;;16.27;8.07;;;16.60;99.90;;;;;;5063688;28;20185;-76
2021/09/20 03:25:19;;;;;;;15.20;8.60;;;16.50;99.90;;;;;;5079961;28;20185;-77
2021/09/20 03:27:45;;;;;;;12.97;8.17;;;16.40;99.90;;;;;;5094245;28;20222;-77
2021/09/20 03:30:13;;;;;;;14.13;8.00;;;16.40;99.90;;;;;;5076729;28;20212;-77
2021/09/20 03:32:39;;;;;;;15.83;7.90;;;16.20;99.90;;;;;;5096178;28;20267;-77
2021/09/20 03:35:06;;;;;;;14.40;8.30;;;16.10;99.90;;;;;;5091541;28;20276;-77
2021/09/20 03:37:32;;;;;;;14.10;8.33;;;16.10;99.90;;;;;;5073257;28;20601;-77
2021/09/20 03:39:58;;;;;;;12.50;7.40;;;16.00;99.90;;;;;;5094897;28;20184;-77
2021/09/20 03:42:24;;;;;;;12.60;7.37;;;15.90;99.90;;;;;;5091077;28;20222;-77
2021/09/20 03:44:50;;;;;;;15.33;7.77;;;15.70;99.90;;;;;;5093483;28;20193;-77
2021/09/20 03:47:16;;;;;;;12.23;7.73;;;15.60;99.90;;;;;;5097841;28;20187;-77
2021/09/20 03:49:41;;;;;;;13.23;8.17;;;15.70;99.90;;;;;;5095399;28;20588;-78
2021/09/20 03:52:07;;;;;;;13.37;7.53;;;15.70;99.90;;;;;;5087798;28;20186;-79
2021/09/20 03:54:34;;;;;;;12.10;7.47;;;15.70;99.90;;;;;;5090565;28;20184;-79
2021/09/20 03:57:00;;;;;;;13.80;7.60;;;15.60;99.90;;;;;;5088468;28;20200;-79
2021/09/20 03:59:25;;;;;;;13.63;7.50;;;15.60;99.90;;;;;;5092922;28;20188;-79
2021/09/20 04:01:52;;;;;;;12.90;8.50;;;15.50;99.90;;;;;;5093203;28;20192;-79
2021/09/20 04:04:17;;;;;;;13.30;8.40;;;15.50;99.90;;;;;;5091791;28;20191;-78
2021/09/20 04:06:44;;;;;;;13.20;7.63;;;15.50;99.90;;;;;;5074841;28;20200;-78
2021/09/20 04:09:10;;;;;;;12.03;7.67;;;15.50;99.90;;;;;;5069823;28;20252;-78
2021/09/20 04:11:40;;;;;;;14.43;8.10;;;15.50;99.90;;;;;;5094433;28;20264;-79
2021/09/20 04:14:09;;;;;;;13.43;7.97;;;15.30;99.90;;;;;;5076183;28;20220;-79
2021/09/20 04:16:34;;;;;;;15.20;8.00;;;15.30;99.90;;;;;;5076105;28;20698;-78
2021/09/20 04:19:00;;;;;;;12.97;7.40;;;15.40;99.90;;;;;;5064631;28;20324;-78
2021/09/20 04:21:26;;;;;;;15.77;7.77;;;15.30;99.90;;;;;;5073206;28;20180;-79
2021/09/20 04:23:52;;;;;;;16.90;8.67;;;15.20;99.90;;;;;;5095310;28;20217;-79
2021/09/20 04:26:18;;;;;;;15.67;8.33;;;15.10;99.90;;;;;;5073268;28;20543;-79
2021/09/20 04:28:44;;;;;;;15.77;9.27;;;15.20;99.90;;;;;;5078174;28;20186;-79
2021/09/20 04:31:10;;;;;;;16.33;9.77;;;15.30;99.90;;;;;;5074245;28;20190;-79
2021/09/20 04:33:35;;;;;;;16.60;9.20;;;15.30;99.90;;;;;;5080740;28;20204;-78
2021/09/20 04:36:01;;;;;;;16.27;9.13;;;15.30;99.90;;;;;;5094225;28;20283;-79
2021/09/20 04:38:27;;;;;;;17.30;9.80;;;15.40;99.90;;;;;;5072590;28;20246;-78
2021/09/20 04:40:53;;;;;;;17.33;9.27;;;15.50;99.90;;;;;;5091454;28;20258;-79
2021/09/20 04:43:19;;;;;;;14.10;9.20;;;15.50;99.90;;;;;;5080645;28;20203;-79
2021/09/20 04:45:45;;;;;;;15.57;9.30;;;15.40;99.90;;;;;;5081735;28;20659;-78
2021/09/20 04:48:11;;;;;;;15.67;9.60;;;15.40;99.90;;;;;;5088587;28;20189;-78
2021/09/20 04:50:47;;;;;;;16.53;8.53;;;15.40;99.90;;;;;;5090033;28;20181;-78
2021/09/20 04:53:14;;;;;;;15.67;8.83;;;15.30;99.90;;;;;;5085060;28;20188;-79
2021/09/20 04:55:40;;;;;;;16.73;9.30;;;15.30;99.90;;;;;;5093497;28;20204;-78
2021/09/20 04:58:07;;;;;;;16.67;9.17;;;15.30;99.90;;;;;;5093941;28;20214;-78
2021/09/20 05:00:34;;;;;;;16.70;9.27;;;15.20;99.90;;;;;;5091130;28;20186;-79
2021/09/20 05:03:00;;;;;;;18.10;9.47;;;15.20;99.90;;;;;;5081508;28;20172;-79
2021/09/20 05:05:26;;;;;;;17.50;9.30;;;15.20;99.90;;;;;;5071116;28;20529;-78
2021/09/20 05:07:52;;;;;;;15.87;8.93;;;15.20;99.90;;;;;;5074726;28;20235;-79
2021/09/20 05:10:18;;;;;;;16.00;8.40;;;15.20;99.90;;;;;;5090298;28;20191;-78
2021/09/20 05:12:44;;;;;;;15.23;8.43;;;15.10;99.90;;;;;;5091572;28;20188;-79
2021/09/20 05:15:10;;;;;;;17.30;9.37;;;15.10;99.90;;;;;;5085086;28;20185;-79
2021/09/20 05:17:37;;;;;;;18.77;10.47;;;15.10;99.90;;;;;;5064810;28;20189;-76
2021/09/20 05:20:04;;;;;;;19.87;11.63;;;15.10;99.90;;;;;;5066605;28;20204;-77
2021/09/20 05:22:30;;;;;;;20.67;10.80;;;15.10;99.90;;;;;;5072011;28;20184;-79
2021/09/20 05:24:56;;;;;;;19.20;10.90;;;15.10;99.90;;;;;;5085544;28;20258;-78
2021/09/20 05:27:21;;;;;;;21.67;11.00;;;15.10;99.90;;;;;;5085918;28;20194;-80
2021/09/20 05:29:47;;;;;;;19.43;10.77;;;15.10;99.90;;;;;;5094670;28;20203;-77
2021/09/20 05:32:13;;;;;;;19.30;10.93;;;15.10;99.90;;;;;;5094273;28;20188;-80
2021/09/20 05:34:39;;;;;;;20.50;11.70;;;15.10;99.90;;;;;;5089467;28;20259;-80
2021/09/20 05:37:05;;;;;;;19.83;10.80;;;15.10;99.90;;;;;;5089726;28;20303;-80
2021/09/20 05:39:33;;;;;;;22.77;11.20;;;15.10;99.90;;;;;;5069360;28;20218;-80
2021/09/20 05:41:59;;;;;;;21.73;12.30;;;15.10;99.90;;;;;;5077046;28;20215;-83
2021/09/20 05:44:25;;;;;;;26.43;12.73;;;15.10;99.90;;;;;;5057146;28;20187;-81
2021/09/20 05:46:51;;;;;;;22.07;12.30;;;15.20;99.90;;;;;;5068798;28;20230;-80
2021/09/20 05:49:16;;;;;;;25.27;12.97;;;15.20;99.90;;;;;;5060054;28;20175;-80
2021/09/20 05:51:42;;;;;;;23.30;13.33;;;15.30;99.90;;;;;;5067217;28;20665;-80
2021/09/20 05:54:08;;;;;;;17.47;10.50;;;15.40;99.90;;;;;;5077024;28;20183;-81
2021/09/20 05:56:35;;;;;;;19.90;11.27;;;15.30;99.90;;;;;;5084101;28;20214;-81
2021/09/20 05:59:01;;;;;;;22.07;11.93;;;15.20;99.90;;;;;;5094435;28;20742;-75
2021/09/20 06:01:27;;;;;;;18.93;10.80;;;15.30;99.90;;;;;;5088286;28;20208;-75
2021/09/20 06:03:52;;;;;;;21.33;12.60;;;15.40;99.90;;;;;;5074688;28;20282;-81
2021/09/20 06:06:18;;;;;;;19.47;11.60;;;15.50;99.90;;;;;;5077259;28;20185;-81
2021/09/20 06:08:44;;;;;;;22.27;11.70;;;15.60;99.90;;;;;;5092162;28;20726;-83
2021/09/20 06:11:11;;;;;;;19.50;10.93;;;15.70;99.90;;;;;;5094079;28;20224;-81
2021/09/20 06:13:38;;;;;;;20.53;12.90;;;15.80;99.90;;;;;;5086579;28;20647;-81
2021/09/20 06:16:04;;;;;;;21.83;11.80;;;15.90;99.90;;;;;;5062930;28;20205;-82
2021/09/20 06:18:30;;;;;;;21.30;12.17;;;16.00;99.90;;;;;;5093564;28;20189;-82
2021/09/20 06:20:56;;;;;;;20.27;11.63;;;16.10;99.90;;;;;;5088211;28;20189;-76
2021/09/20 06:23:22;;;;;;;20.13;12.10;;;16.10;99.90;;;;;;5073270;28;20276;-75
2021/09/20 06:25:49;;;;;;;22.63;12.23;;;16.10;99.90;;;;;;5097924;28;20179;-75
2021/09/20 06:28:15;;;;;;;21.43;12.37;;;16.20;99.90;;;;;;5094000;28;20253;-81
2021/09/20 06:30:40;;;;;;;18.33;11.53;;;16.30;99.90;;;;;;5060772;28;20185;-76
2021/09/20 06:33:06;;;;;;;19.00;11.43;;;16.50;99.90;;;;;;5095259;28;20273;-76
2021/09/20 06:35:32;;;;;;;19.00;11.53;;;16.80;99.90;;;;;;5093486;28;20233;-75
2021/09/20 06:37:59;;;;;;;17.80;11.80;;;17.40;99.90;;;;;;5083200;28;20179;-81
2021/09/20 06:40:25;;;;;;;19.07;10.90;;;17.90;99.90;;;;;;5057430;28;20191;-82
2021/09/20 06:42:51;;;;;;;18.53;11.27;;;18.40;99.90;;;;;;5075906;28;21014;-82
2021/09/20 06:45:18;;;;;;;21.07;11.73;;;18.70;99.90;;;;;;5079123;28;20282;-76
2021/09/20 06:47:44;;;;;;;19.20;10.80;;;19.00;99.90;;;;;;5093192;28;20213;-76
2021/09/20 06:50:11;;;;;;;18.83;10.70;;;19.60;99.90;;;;;;5091406;28;20650;-76
2021/09/20 06:52:37;;;;;;;17.03;10.53;;;20.20;99.90;;;;;;5076921;28;20542;-82
2021/09/20 06:55:03;;;;;;;15.33;10.10;;;20.60;99.90;;;;;;5074237;28;20175;-82
2021/09/20 06:57:29;;;;;;;16.53;10.73;;;21.40;99.90;;;;;;5069198;28;20173;-82
2021/09/20 06:59:55;;;;;;;17.53;10.83;;;21.90;99.90;;;;;;5078433;28;20186;-82
2021/09/20 07:02:20;;;;;;;16.33;10.90;;;22.30;99.90;;;;;;5053890;28;20172;-82
2021/09/20 07:04:46;;;;;;;15.57;10.13;;;22.80;99.90;;;;;;5093467;28;20562;-82
2021/09/20 07:07:14;;;;;;;15.00;9.93;;;23.40;99.90;;;;;;5062047;28;20205;-83
2021/09/20 07:09:41;;;;;;;16.73;10.13;;;24.00;99.90;;;;;;5080916;28;20209;-82
2021/09/20 07:12:07;;;;;;;16.43;9.73;;;24.20;99.90;;;;;;5057927;28;20188;-76
2021/09/20 07:14:32;;;;;;;16.20;10.33;;;24.40;99.90;;;;;;5091315;28;20184;-82
2021/09/20 07:16:58;;;;;;;14.57;9.20;;;24.10;99.90;;;;;;5094401;28;20206;-82
2021/09/20 07:19:24;;;;;;;16.27;10.43;;;23.50;99.90;;;;;;5074931;28;20167;-82
2021/09/20 07:21:50;;;;;;;19.10;10.30;;;23.60;99.90;;;;;;5090690;28;20188;-76
2021/09/20 07:24:16;;;;;;;14.10;9.33;;;23.60;99.90;;;;;;5091588;28;20210;-76
2021/09/20 07:26:42;;;;;;;18.57;10.57;;;23.40;99.90;;;;;;5067747;28;20175;-76
2021/09/20 07:29:08;;;;;;;14.63;9.67;;;23.40;99.90;;;;;;5092635;28;20191;-76
2021/09/20 07:31:34;;;;;;;15.40;10.17;;;23.30;99.90;;;;;;5070773;28;20195;-82
2021/09/20 07:34:00;;;;;;;14.33;9.67;;;23.10;99.90;;;;;;5072005;28;20561;-82
2021/09/20 07:36:26;;;;;;;13.00;9.20;;;23.60;99.90;;;;;;5077227;28;20230;-82
2021/09/20 07:38:52;;;;;;;14.63;10.03;;;23.60;99.90;;;;;;5070420;28;20213;-82
2021/09/20 07:41:18;;;;;;;15.40;9.93;;;23.50;99.90;;;;;;5094055;28;20179;-82
2021/09/20 07:43:47;;;;;;;16.80;10.20;;;23.30;99.90;;;;;;5073041;28;20310;-82
2021/09/20 07:46:19;;;;;;;15.13;10.57;;;22.90;99.90;;;;;;5070728;28;20203;-82
2021/09/20 07:48:45;;;;;;;14.47;9.17;;;22.50;99.90;;;;;;5072417;28;20191;-82
2021/09/20 07:51:11;;;;;;;16.73;10.40;;;22.50;99.90;;;;;;5091724;28;20178;-76
2021/09/20 07:53:37;;;;;;;14.80;10.00;;;23.10;99.90;;;;;;5088172;28;20202;-77
2021/09/20 07:56:03;;;;;;;13.53;9.57;;;23.00;99.90;;;;;;5099889;28;20206;-82
2021/09/20 07:58:29;;;;;;;15.53;9.83;;;23.20;99.90;;;;;;5089349;28;20179;-83
2021/09/20 08:00:55;;;;;;;38.37;11.20;;;23.70;99.90;;;;;;5093287;28;20206;-74
2021/09/20 08:03:22;;;;;;;23.00;10.43;;;23.80;99.90;;;;;;5085591;28;20524;-82
2021/09/20 08:05:52;;;;;;;25.47;10.53;;;23.40;99.90;;;;;;5091194;28;20191;-80
2021/09/20 08:08:18;;;;;;;15.93;9.80;;;23.00;99.90;;;;;;5077832;28;20229;-80
2021/09/20 08:10:44;;;;;;;20.23;10.17;;;22.20;99.90;;;;;;5073924;28;20186;-75
2021/09/20 08:13:11;;;;;;;16.87;10.07;;;21.50;99.90;;;;;;5071793;28;20234;-75
2021/09/20 08:15:37;;;;;;;17.63;9.93;;;21.10;99.90;;;;;;5075038;28;20307;-76
2021/09/20 08:18:04;;;;;;;16.47;9.60;;;21.40;99.90;;;;;;5072678;28;20636;-76
2021/09/20 08:20:30;;;;;;;13.73;9.07;;;22.40;99.90;;;;;;5083686;28;20191;-76
2021/09/20 08:22:56;;;;;;;14.53;9.40;;;23.30;99.90;;;;;;5083178;28;20280;-76
2021/09/20 08:25:23;;;;;;;18.47;9.27;;;22.90;99.90;;;;;;5086896;28;20276;-75
2021/09/20 08:27:53;;;;;;;14.20;8.53;;;23.10;99.90;;;;;;5096008;28;20186;-76
2021/09/20 08:30:21;;;;;;;15.47;8.37;;;23.20;99.90;;;;;;5090925;28;20191;-76
2021/09/20 08:32:46;;;;;;;14.23;8.87;;;23.10;99.90;;;;;;5052655;28;20253;-81
2021/09/20 08:35:13;;;;;;;12.37;8.60;;;22.90;99.90;;;;;;5078055;28;20572;-81
2021/09/20 08:37:39;;;;;;;13.40;8.63;;;23.10;99.90;;;;;;5075318;28;20177;-76
2021/09/20 08:40:07;;;;;;;15.23;8.23;;;23.10;99.90;;;;;;5088746;28;20653;-76
2021/09/20 08:42:37;;;;;;;13.77;8.57;;;22.90;99.90;;;;;;5090215;28;20209;-76
2021/09/20 08:45:08;;;;;;;14.07;8.73;;;22.90;99.90;;;;;;5077306;28;20638;-76
2021/09/20 08:47:34;;;;;;;14.73;8.57;;;23.00;99.90;;;;;;5089754;28;20214;-76
2021/09/20 08:50:01;;;;;;;13.93;8.17;;;22.70;99.90;;;;;;5070476;28;20187;-81
2021/09/20 08:52:27;;;;;;;12.30;8.30;;;22.40;99.90;;;;;;5073908;28;20247;-81
2021/09/20 08:54:53;;;;;;;12.87;8.30;;;22.50;99.90;;;;;;5075739;28;20182;-81
2021/09/20 08:57:20;;;;;;;14.97;8.03;;;22.80;99.90;;;;;;5085288;28;20549;-76
2021/09/20 08:59:46;;;;;;;14.33;8.37;;;22.60;99.90;;;;;;5090261;28;20188;-76
2021/09/20 09:02:16;;;;;;;13.50;8.33;;;22.20;99.90;;;;;;5050442;28;20193;-76
2021/09/20 09:04:43;;;;;;;16.93;9.97;;;21.70;99.90;;;;;;5087029;28;20203;-76
2021/09/20 09:07:12;;;;;;;14.80;8.20;;;21.70;99.90;;;;;;5075187;28;20204;-75
2021/09/20 09:09:43;;;;;;;12.37;8.20;;;21.80;99.90;;;;;;5087575;28;20185;-76
2021/09/20 09:12:24;;;;;;;11.90;7.47;;;21.90;99.90;;;;;;5083912;28;20188;-75
2021/09/20 09:14:52;;;;;;;11.97;7.67;;;21.90;99.90;;;;;;5072570;28;20244;-76
2021/09/20 09:17:29;;;;;;;12.63;8.10;;;21.80;99.90;;;;;;5069830;28;20236;-75
2021/09/20 09:19:58;;;;;;;12.47;7.60;;;21.80;99.90;;;;;;5085620;28;20592;-76
2021/09/20 09:22:43;;;;;;;14.03;8.00;;;21.70;99.90;;;;;;5056514;28;20180;-75
2021/09/20 09:25:13;;;;;;;14.40;7.97;;;21.60;99.90;;;;;;5069783;28;20192;-80
2021/09/20 09:27:40;;;;;;;11.73;7.00;;;21.70;99.90;;;;;;5049656;28;20190;-76
2021/09/20 09:30:14;;;;;;;11.67;7.07;;;22.00;99.90;;;;;;5074905;28;20281;-76
2021/09/20 09:32:41;;;;;;;11.93;7.30;;;22.10;99.90;;;;;;5065705;28;20664;-76
2021/09/20 09:35:09;;;;;;;12.47;6.40;;;22.10;99.90;;;;;;5071260;28;20197;-75
2021/09/20 09:37:40;;;;;;;12.10;6.80;;;22.10;99.90;;;;;;5067276;28;20229;-75
2021/09/20 09:40:12;;;;;;;12.17;6.57;;;22.10;99.90;;;;;;5079875;28;20183;-75
2021/09/20 09:42:39;;;;;;;11.27;6.63;;;22.00;99.90;;;;;;5089020;28;20192;-75
2021/09/20 09:45:29;;;;;;;12.37;6.90;;;22.10;99.90;;;;;;5073500;28;20340;-75
2021/09/20 09:48:11;;;;;;;10.63;6.97;;;22.10;99.90;;;;;;5056529;28;20188;-75
2021/09/20 09:50:42;;;;;;;11.63;6.77;;;21.90;99.90;;;;;;5065703;28;20185;-75
2021/09/20 09:53:20;;;;;;;12.30;6.50;;;22.20;99.90;;;;;;5072390;28;20185;-76
2021/09/20 09:55:45;;;;;;;10.13;5.93;;;23.30;99.90;;;;;;5065140;28;20214;-75
2021/09/20 09:58:12;;;;;;;11.43;5.90;;;24.60;99.90;;;;;;5059946;28;20178;-76
2021/09/20 10:00:38;;;;;;;9.77;5.80;;;25.60;99.90;;;;;;5088407;28;20194;-76
2021/09/20 10:03:04;;;;;;;10.07;5.07;;;25.80;99.90;;;;;;5081941;28;20180;-81
2021/09/20 10:05:30;;;;;;;8.33;4.80;;;26.40;99.90;;;;;;5096302;28;20194;-80
2021/09/20 10:07:56;;;;;;;10.07;5.03;;;26.60;99.90;;;;;;5091430;28;20230;-82
2021/09/20 10:10:31;;;;;;;9.52;5.35;;;25.80;99.90;;;;;;5083807;28;20194;-81
2021/09/20 10:13:04;;;;;;;9.03;5.10;;;25.30;99.90;;;;;;5059903;28;20187;-81
2021/09/20 10:15:32;;;;;;;10.83;5.50;;;24.60;99.90;;;;;;5088974;28;20245;-75
2021/09/20 10:17:59;;;;;;;12.73;5.50;;;24.60;99.90;;;;;;5085587;28;20186;-76
2021/09/20 10:20:27;;;;;;;8.37;5.13;;;24.30;99.90;;;;;;5072630;28;20206;-75
2021/09/20 10:22:54;;;;;;;8.93;5.37;;;24.20;99.90;;;;;;5067580;28;20179;-75
2021/09/20 10:25:21;;;;;;;9.97;5.63;;;24.00;99.90;;;;;;5074726;28;20612;-75
2021/09/20 10:27:49;;;;;;;10.23;5.33;;;23.60;99.90;;;;;;5083280;28;20158;-80
2021/09/20 10:30:25;;;;;;;9.47;5.40;;;23.50;99.90;;;;;;5095873;28;20189;-81
2021/09/20 10:32:54;;;;;;;9.47;6.13;;;23.30;99.90;;;;;;5099930;28;20178;-81
2021/09/20 10:35:30;;;;;;;12.97;5.90;;;22.70;99.90;;;;;;5094161;28;20247;-81
2021/09/20 10:38:28;;;;;;;10.67;6.37;;;22.90;99.90;;;;;;5071630;28;20236;-81
2021/09/20 10:41:13;;;;;;;9.17;6.00;;;22.50;99.90;;;;;;5075711;28;20182;-80
2021/09/20 10:43:59;;;;;;;11.80;6.30;;;22.00;99.90;;;;;;5091256;28;20180;-80
2021/09/20 10:46:29;;;;;;;10.47;6.33;;;21.80;99.90;;;;;;5082789;28;20218;-81
2021/09/20 10:48:59;;;;;;;10.63;6.23;;;22.10;99.90;;;;;;5076659;28;20194;-81
2021/09/20 10:51:37;;;;;;;11.57;6.30;;;22.10;99.90;;;;;;5061506;28;20205;-81
2021/09/20 10:54:14;;;;;;;14.20;6.50;;;22.00;99.90;;;;;;5094796;28;20195;-75
2021/09/20 10:56:40;;;;;;;12.13;7.10;;;22.00;99.90;;;;;;5073255;28;20704;-75
2021/09/20 10:59:08;;;;;;;14.20;7.40;;;22.10;99.90;;;;;;5095795;28;20650;-80
2021/09/20 11:01:35;;;;;;;12.63;6.90;;;22.10;99.90;;;;;;5061086;28;20683;-82
2021/09/20 11:04:21;;;;;;;12.37;7.60;;;22.10;99.90;;;;;;5059452;28;20646;-81
2021/09/20 11:07:12;;;;;;;13.63;8.40;;;22.30;99.90;;;;;;5093304;28;20194;-81
2021/09/20 11:09:52;;;;;;;15.33;8.10;;;22.40;99.90;;;;;;5076956;28;20290;-81
2021/09/20 11:12:25;;;;;;;15.10;9.10;;;22.60;99.90;;;;;;5094623;28;20196;-81
2021/09/20 11:15:01;;;;;;;13.37;8.03;;;23.00;99.90;;;;;;5076419;28;20182;-81
2021/09/20 11:17:29;;;;;;;13.90;7.30;;;23.20;99.90;;;;;;5095362;28;20281;-81
2021/09/20 11:20:00;;;;;;;11.63;7.00;;;23.30;99.90;;;;;;5091407;28;20179;-81
2021/09/20 11:22:29;;;;;;;11.00;6.23;;;23.20;99.90;;;;;;5054923;28;20171;-82
2021/09/20 11:25:06;;;;;;;9.87;6.40;;;22.90;99.90;;;;;;5060990;28;20182;-82
2021/09/20 11:27:44;;;;;;;15.10;6.70;;;22.80;99.90;;;;;;5060598;28;20184;-81
2021/09/20 11:30:13;;;;;;;13.73;6.23;;;22.80;99.90;;;;;;5077866;28;20214;-80
2021/09/20 11:32:57;;;;;;;12.00;5.93;;;22.50;99.90;;;;;;5092061;28;20178;-82
2021/09/20 11:35:25;;;;;;;11.90;6.30;;;22.50;99.90;;;;;;5081379;28;20181;-82
2021/09/20 11:37:52;;;;;;;12.30;7.03;;;22.50;99.90;;;;;;5076813;28;20192;-76
2021/09/20 11:40:21;;;;;;;11.50;7.00;;;22.40;99.90;;;;;;5086857;28;20189;-76
2021/09/20 11:42:52;;;;;;;13.43;7.63;;;22.20;99.90;;;;;;5095515;28;20213;-81
2021/09/20 11:45:28;;;;;;;15.90;8.30;;;21.80;99.90;;;;;;5080190;28;20178;-82
2021/09/20 11:47:59;;;;;;;14.53;8.50;;;21.80;99.90;;;;;;5062450;28;20187;-81
2021/09/20 11:50:34;;;;;;;14.00;8.13;;;21.40;99.90;;;;;;5076424;28;20215;-76
2021/09/20 11:53:02;;;;;;;14.93;8.43;;;21.40;99.90;;;;;;5088787;28;20177;-81
2021/09/20 11:55:34;;;;;;;13.87;8.07;;;21.50;99.90;;;;;;5062950;28;20204;-81
2021/09/20 11:58:03;;;;;;;12.47;7.43;;;21.30;99.90;;;;;;5087312;28;20181;-75
2021/09/20 12:00:31;;;;;;;15.60;7.93;;;21.20;99.90;;;;;;5095792;28;20233;-75
2021/09/20 12:02:59;;;;;;;15.77;7.57;;;21.30;99.90;;;;;;5090607;28;20186;-80
2021/09/20 12:05:27;;;;;;;18.50;8.00;;;21.20;99.90;;;;;;5072950;28;20241;-80
2021/09/20 12:07:58;;;;;;;12.30;7.63;;;21.20;99.90;;;;;;5074935;28;20228;-76
2021/09/20 12:10:25;;;;;;;17.33;7.27;;;21.30;99.90;;;;;;5088763;28;20213;-81
2021/09/20 12:12:55;;;;;;;12.33;6.00;;;21.50;99.90;;;;;;5091551;28;20238;-76
2021/09/20 12:15:28;;;;;;;12.40;6.30;;;21.70;99.90;;;;;;5092609;28;20172;-76
2021/09/20 12:18:23;;;;;;;13.67;7.00;;;21.70;99.90;;;;;;5059237;28;20618;-81
2021/09/20 12:21:01;;;;;;;14.07;8.10;;;21.70;99.90;;;;;;5072440;28;20255;-80
2021/09/20 12:23:33;;;;;;;13.90;7.80;;;21.80;99.90;;;;;;5062496;28;20265;-76
2021/09/20 12:26:00;;;;;;;12.70;7.47;;;21.80;99.90;;;;;;5084738;28;20802;-75
2021/09/20 12:28:39;;;;;;;16.27;8.33;;;22.00;99.90;;;;;;5089892;28;20190;-76
2021/09/20 12:31:20;;;;;;;18.47;7.77;;;22.10;99.90;;;;;;5079728;28;20190;-76
2021/09/20 12:34:04;;;;;;;17.00;7.63;;;22.40;99.90;;;;;;5086553;28;20185;-76
2021/09/20 12:36:43;;;;;;;16.17;7.70;;;23.10;99.90;;;;;;5093080;28;20721;-76
2021/09/20 12:39:19;;;;;;;15.70;7.27;;;24.00;99.90;;;;;;5069573;28;20548;-76